<?xml version="1.0" encoding="UTF-8" standalone="no" ?>
<gpx xmlns="http://www.topografix.com/GPX/1/1" xmlns:xsi="http://www.w3.org/2001/XMLSchema-instance" xsi:schemaLocation="http://www.topografix.com/GPX/1/1 http://www.topografix.com/GPX/1/1/gpx.xsd" version="1.1" creator="VisuGPX - https://www.visugpx.com">
  <metadata>
    <name>Clapouze - Faraut 2234 - Queyriere (Devoluy)</name>
    <desc><![CDATA[Au départ du [b]Glaizil[/b] à 8:20 Retour 16:20.
Rando très difficile (R4)
A/R sur la crête de la Montagne de Faraut par une vire.
Sentier pour la [b]Croix de Queyrière[/b] balisé jaune...
D'autres photos ici: [b][url]https://photos.app.goo.gl/uijxQtM2nQdX9hcr9[/url][/b]
.
A développer
.
Autres sorties dans le massif: [url]https://www.visugpx.com/membres/87/devoluy/[/url] 
]]></desc>
  </metadata>
  <wpt lat="44.74515" lon="5.95807">
    <ele>1698.5</ele>
    <name><![CDATA[0000180]]></name>
    <type><![CDATA[Photo]]></type>
  </wpt>
  <wpt lat="44.74463" lon="5.95684">
    <ele>1743.05</ele>
    <name><![CDATA[0000181]]></name>
    <type><![CDATA[Jalon]]></type>
  </wpt>
  <wpt lat="44.74326" lon="5.94945">
    <ele>2222.55</ele>
    <name><![CDATA[0000182]]></name>
    <type><![CDATA[Jalon]]></type>
  </wpt>
  <trk>
    <name><![CDATA[2022-06-09 Queyriere]]></name>
    <desc><![CDATA[<p>Heure de départ: 08:17 9 juin 2022<br/>Heure d'arrivée: 16:17 9 juin 2022<br/>Distance: 10 km (08:00)<br/>Temps déplacement: 06:09<br/>Vitesse moyenne: 1,25 km/h<br/>Vitesse moyenne mouv.: 1,62 km/h<br/>Vitesse Max.: 5,45 km/h<br/>Altitude minimale: 948 m<br/>Altitude maximale: 2210 m<br/>Vitesse de montée: 456,5 m/h<br/>Vitesse de descente: 420,7 m/h<br/>Gain d'altitude: 1334 m<br/>Perte d'altitude: 1340 m<br/>Temps de montée: 02:55<br/>Temps de descente: 03:11<br/></p><hr align="center" width="480" style="height: 2px; width: 517px"/>]]></desc>
    <trkseg>
      <trkpt lat="44.7532" lon="5.98152">
        <ele>956.53</ele>
        <time>2022-06-09T06:17:12.000Z</time>
      </trkpt>
      <trkpt lat="44.75309" lon="5.98131">
        <ele>957.8</ele>
        <time>2022-06-09T06:18:14.000Z</time>
      </trkpt>
      <trkpt lat="44.75301" lon="5.98108">
        <ele>959.41</ele>
        <time>2022-06-09T06:18:39.000Z</time>
      </trkpt>
      <trkpt lat="44.7529" lon="5.98087">
        <ele>961.48</ele>
        <time>2022-06-09T06:18:57.000Z</time>
      </trkpt>
      <trkpt lat="44.7528" lon="5.98064">
        <ele>964.06</ele>
        <time>2022-06-09T06:19:15.000Z</time>
      </trkpt>
      <trkpt lat="44.75269" lon="5.98043">
        <ele>963.26</ele>
        <time>2022-06-09T06:19:31.000Z</time>
      </trkpt>
      <trkpt lat="44.75258" lon="5.9802">
        <ele>965.48</ele>
        <time>2022-06-09T06:19:49.000Z</time>
      </trkpt>
      <trkpt lat="44.7525" lon="5.97997">
        <ele>968.81</ele>
        <time>2022-06-09T06:20:10.000Z</time>
      </trkpt>
      <trkpt lat="44.75247" lon="5.97971">
        <ele>970.24</ele>
        <time>2022-06-09T06:20:29.000Z</time>
      </trkpt>
      <trkpt lat="44.75242" lon="5.97946">
        <ele>971.68</ele>
        <time>2022-06-09T06:20:49.000Z</time>
      </trkpt>
      <trkpt lat="44.75234" lon="5.97923">
        <ele>977.04</ele>
        <time>2022-06-09T06:21:14.000Z</time>
      </trkpt>
      <trkpt lat="44.7523" lon="5.97897">
        <ele>979.71</ele>
        <time>2022-06-09T06:21:37.000Z</time>
      </trkpt>
      <trkpt lat="44.75228" lon="5.97871">
        <ele>981.23</ele>
        <time>2022-06-09T06:23:12.000Z</time>
      </trkpt>
      <trkpt lat="44.75227" lon="5.97845">
        <ele>985.18</ele>
        <time>2022-06-09T06:23:35.000Z</time>
      </trkpt>
      <trkpt lat="44.75223" lon="5.9782">
        <ele>989.31</ele>
        <time>2022-06-09T06:24:00.000Z</time>
      </trkpt>
      <trkpt lat="44.7522" lon="5.97795">
        <ele>992.97</ele>
        <time>2022-06-09T06:24:22.000Z</time>
      </trkpt>
      <trkpt lat="44.7523" lon="5.97773">
        <ele>996.61</ele>
        <time>2022-06-09T06:24:46.000Z</time>
      </trkpt>
      <trkpt lat="44.7523" lon="5.97746">
        <ele>999.98</ele>
        <time>2022-06-09T06:25:09.000Z</time>
      </trkpt>
      <trkpt lat="44.75228" lon="5.9772">
        <ele>1006.24</ele>
        <time>2022-06-09T06:25:41.000Z</time>
      </trkpt>
      <trkpt lat="44.75232" lon="5.97694">
        <ele>1007.64</ele>
        <time>2022-06-09T06:27:35.000Z</time>
      </trkpt>
      <trkpt lat="44.75231" lon="5.97668">
        <ele>1008.76</ele>
        <time>2022-06-09T06:27:54.000Z</time>
      </trkpt>
      <trkpt lat="44.75227" lon="5.97642">
        <ele>1011.82</ele>
        <time>2022-06-09T06:28:28.000Z</time>
      </trkpt>
      <trkpt lat="44.75212" lon="5.97628">
        <ele>1013.71</ele>
        <time>2022-06-09T06:29:05.000Z</time>
      </trkpt>
      <trkpt lat="44.75193" lon="5.97632">
        <ele>1020.16</ele>
        <time>2022-06-09T06:30:07.000Z</time>
      </trkpt>
      <trkpt lat="44.75177" lon="5.9762">
        <ele>1026.89</ele>
        <time>2022-06-09T06:30:51.000Z</time>
      </trkpt>
      <trkpt lat="44.75178" lon="5.97595">
        <ele>1035.82</ele>
        <time>2022-06-09T06:31:29.000Z</time>
      </trkpt>
      <trkpt lat="44.7518" lon="5.97569">
        <ele>1040.06</ele>
        <time>2022-06-09T06:31:58.000Z</time>
      </trkpt>
      <trkpt lat="44.75161" lon="5.97568">
        <ele>1049.3</ele>
        <time>2022-06-09T06:36:41.000Z</time>
      </trkpt>
      <trkpt lat="44.75143" lon="5.97569">
        <ele>1053.31</ele>
        <time>2022-06-09T06:37:49.999Z</time>
      </trkpt>
      <trkpt lat="44.75125" lon="5.97575">
        <ele>1059.57</ele>
        <time>2022-06-09T06:38:33.999Z</time>
      </trkpt>
      <trkpt lat="44.75116" lon="5.97553">
        <ele>1069.03</ele>
        <time>2022-06-09T06:39:22.999Z</time>
      </trkpt>
      <trkpt lat="44.751" lon="5.97543">
        <ele>1079.87</ele>
        <time>2022-06-09T06:41:40.999Z</time>
      </trkpt>
      <trkpt lat="44.75088" lon="5.97523">
        <ele>1085.85</ele>
        <time>2022-06-09T06:42:42.999Z</time>
      </trkpt>
      <trkpt lat="44.75087" lon="5.97497">
        <ele>1092.58</ele>
        <time>2022-06-09T06:43:15.999Z</time>
      </trkpt>
      <trkpt lat="44.75087" lon="5.97472">
        <ele>1099.78</ele>
        <time>2022-06-09T06:43:51.999Z</time>
      </trkpt>
      <trkpt lat="44.75084" lon="5.97446">
        <ele>1108.3</ele>
        <time>2022-06-09T06:44:23.999Z</time>
      </trkpt>
      <trkpt lat="44.75077" lon="5.97422">
        <ele>1119.5</ele>
        <time>2022-06-09T06:45:12.999Z</time>
      </trkpt>
      <trkpt lat="44.75068" lon="5.97399">
        <ele>1125.17</ele>
        <time>2022-06-09T06:45:43.999Z</time>
      </trkpt>
      <trkpt lat="44.75059" lon="5.97376">
        <ele>1133.21</ele>
        <time>2022-06-09T06:46:20.999Z</time>
      </trkpt>
      <trkpt lat="44.75057" lon="5.9735">
        <ele>1136.77</ele>
        <time>2022-06-09T06:46:47.999Z</time>
      </trkpt>
      <trkpt lat="44.75046" lon="5.97331">
        <ele>1145.07</ele>
        <time>2022-06-09T06:47:20.999Z</time>
      </trkpt>
      <trkpt lat="44.7504" lon="5.97306">
        <ele>1150.07</ele>
        <time>2022-06-09T06:47:50.999Z</time>
      </trkpt>
      <trkpt lat="44.75036" lon="5.97281">
        <ele>1152.57</ele>
        <time>2022-06-09T06:48:10.999Z</time>
      </trkpt>
      <trkpt lat="44.75034" lon="5.97255">
        <ele>1153.63</ele>
        <time>2022-06-09T06:48:29.999Z</time>
      </trkpt>
      <trkpt lat="44.75029" lon="5.9723">
        <ele>1158.48</ele>
        <time>2022-06-09T06:48:59.999Z</time>
      </trkpt>
      <trkpt lat="44.7502" lon="5.97252">
        <ele>1172.17</ele>
        <time>2022-06-09T06:50:11.999Z</time>
      </trkpt>
      <trkpt lat="44.75017" lon="5.97277">
        <ele>1177.31</ele>
        <time>2022-06-09T06:50:42.999Z</time>
      </trkpt>
      <trkpt lat="44.75013" lon="5.97302">
        <ele>1183.58</ele>
        <time>2022-06-09T06:51:13.999Z</time>
      </trkpt>
      <trkpt lat="44.74996" lon="5.97293">
        <ele>1187.45</ele>
        <time>2022-06-09T06:51:39.999Z</time>
      </trkpt>
      <trkpt lat="44.74982" lon="5.97276">
        <ele>1192.56</ele>
        <time>2022-06-09T06:52:08.999Z</time>
      </trkpt>
      <trkpt lat="44.74971" lon="5.97255">
        <ele>1195.63</ele>
        <time>2022-06-09T06:52:33.999Z</time>
      </trkpt>
      <trkpt lat="44.74967" lon="5.9723">
        <ele>1198.91</ele>
        <time>2022-06-09T06:53:05.999Z</time>
      </trkpt>
      <trkpt lat="44.74949" lon="5.97228">
        <ele>1217.44</ele>
        <time>2022-06-09T06:54:38.999Z</time>
      </trkpt>
      <trkpt lat="44.74936" lon="5.97209">
        <ele>1221.96</ele>
        <time>2022-06-09T06:55:20.999Z</time>
      </trkpt>
      <trkpt lat="44.74927" lon="5.97187">
        <ele>1227.09</ele>
        <time>2022-06-09T06:55:46.999Z</time>
      </trkpt>
      <trkpt lat="44.74918" lon="5.97165">
        <ele>1231.21</ele>
        <time>2022-06-09T06:56:10.999Z</time>
      </trkpt>
      <trkpt lat="44.74924" lon="5.97189">
        <ele>1235.18</ele>
        <time>2022-06-09T06:56:52.999Z</time>
      </trkpt>
      <trkpt lat="44.74922" lon="5.97215">
        <ele>1239.26</ele>
        <time>2022-06-09T06:57:13.999Z</time>
      </trkpt>
      <trkpt lat="44.7492" lon="5.97241">
        <ele>1246.22</ele>
        <time>2022-06-09T06:57:42.999Z</time>
      </trkpt>
      <trkpt lat="44.74903" lon="5.97232">
        <ele>1249.95</ele>
        <time>2022-06-09T06:58:12.999Z</time>
      </trkpt>
      <trkpt lat="44.74891" lon="5.97213">
        <ele>1257.69</ele>
        <time>2022-06-09T06:58:44.999Z</time>
      </trkpt>
      <trkpt lat="44.74892" lon="5.97239">
        <ele>1272.61</ele>
        <time>2022-06-09T06:59:53.000Z</time>
      </trkpt>
      <trkpt lat="44.74886" lon="5.97264">
        <ele>1278.23</ele>
        <time>2022-06-09T07:00:29.000Z</time>
      </trkpt>
      <trkpt lat="44.74881" lon="5.97288">
        <ele>1282.26</ele>
        <time>2022-06-09T07:00:54.000Z</time>
      </trkpt>
      <trkpt lat="44.74883" lon="5.97313">
        <ele>1287.39</ele>
        <time>2022-06-09T07:01:26.000Z</time>
      </trkpt>
      <trkpt lat="44.74881" lon="5.97338">
        <ele>1293.53</ele>
        <time>2022-06-09T07:02:12.000Z</time>
      </trkpt>
      <trkpt lat="44.74867" lon="5.97356">
        <ele>1297.33</ele>
        <time>2022-06-09T07:02:39.000Z</time>
      </trkpt>
      <trkpt lat="44.74849" lon="5.97363">
        <ele>1299.97</ele>
        <time>2022-06-09T07:03:06.000Z</time>
      </trkpt>
      <trkpt lat="44.74832" lon="5.97374">
        <ele>1304.93</ele>
        <time>2022-06-09T07:03:32.000Z</time>
      </trkpt>
      <trkpt lat="44.74815" lon="5.97381">
        <ele>1309.61</ele>
        <time>2022-06-09T07:04:08.000Z</time>
      </trkpt>
      <trkpt lat="44.748" lon="5.97365">
        <ele>1315.24</ele>
        <time>2022-06-09T07:04:42.000Z</time>
      </trkpt>
      <trkpt lat="44.74809" lon="5.97343">
        <ele>1319.38</ele>
        <time>2022-06-09T07:05:00.000Z</time>
      </trkpt>
      <trkpt lat="44.74818" lon="5.97321">
        <ele>1322.18</ele>
        <time>2022-06-09T07:05:30.000Z</time>
      </trkpt>
      <trkpt lat="44.74809" lon="5.973">
        <ele>1324.43</ele>
        <time>2022-06-09T07:06:03.000Z</time>
      </trkpt>
      <trkpt lat="44.74797" lon="5.97279">
        <ele>1330.95</ele>
        <time>2022-06-09T07:06:38.000Z</time>
      </trkpt>
      <trkpt lat="44.74789" lon="5.97257">
        <ele>1331.39</ele>
        <time>2022-06-09T07:06:56.000Z</time>
      </trkpt>
      <trkpt lat="44.74783" lon="5.97232">
        <ele>1334.2</ele>
        <time>2022-06-09T07:07:23.000Z</time>
      </trkpt>
      <trkpt lat="44.7477" lon="5.97213">
        <ele>1340.8</ele>
        <time>2022-06-09T07:07:50.000Z</time>
      </trkpt>
      <trkpt lat="44.74768" lon="5.97239">
        <ele>1353.49</ele>
        <time>2022-06-09T07:08:54.000Z</time>
      </trkpt>
      <trkpt lat="44.7477" lon="5.97264">
        <ele>1358.82</ele>
        <time>2022-06-09T07:09:22.000Z</time>
      </trkpt>
      <trkpt lat="44.74773" lon="5.9729">
        <ele>1365.8</ele>
        <time>2022-06-09T07:09:43.000Z</time>
      </trkpt>
      <trkpt lat="44.74762" lon="5.9731">
        <ele>1365.61</ele>
        <time>2022-06-09T07:10:05.000Z</time>
      </trkpt>
      <trkpt lat="44.74744" lon="5.97313">
        <ele>1368.36</ele>
        <time>2022-06-09T07:10:31.000Z</time>
      </trkpt>
      <trkpt lat="44.74726" lon="5.97308">
        <ele>1376</ele>
        <time>2022-06-09T07:10:57.000Z</time>
      </trkpt>
      <trkpt lat="44.74732" lon="5.97285">
        <ele>1382.49</ele>
        <time>2022-06-09T07:11:45.000Z</time>
      </trkpt>
      <trkpt lat="44.74723" lon="5.9726">
        <ele>1386.31</ele>
        <time>2022-06-09T07:12:11.000Z</time>
      </trkpt>
      <trkpt lat="44.74716" lon="5.97237">
        <ele>1389.91</ele>
        <time>2022-06-09T07:12:35.000Z</time>
      </trkpt>
      <trkpt lat="44.74707" lon="5.97216">
        <ele>1390.71</ele>
        <time>2022-06-09T07:12:59.000Z</time>
      </trkpt>
      <trkpt lat="44.74695" lon="5.97195">
        <ele>1396.72</ele>
        <time>2022-06-09T07:13:29.000Z</time>
      </trkpt>
      <trkpt lat="44.74688" lon="5.97172">
        <ele>1403.57</ele>
        <time>2022-06-09T07:14:03.000Z</time>
      </trkpt>
      <trkpt lat="44.74692" lon="5.97196">
        <ele>1412.14</ele>
        <time>2022-06-09T07:14:49.000Z</time>
      </trkpt>
      <trkpt lat="44.74692" lon="5.97223">
        <ele>1415.64</ele>
        <time>2022-06-09T07:15:17.000Z</time>
      </trkpt>
      <trkpt lat="44.74689" lon="5.97249">
        <ele>1419.19</ele>
        <time>2022-06-09T07:15:38.000Z</time>
      </trkpt>
      <trkpt lat="44.74676" lon="5.97267">
        <ele>1422.72</ele>
        <time>2022-06-09T07:15:58.000Z</time>
      </trkpt>
      <trkpt lat="44.74669" lon="5.97243">
        <ele>1424.46</ele>
        <time>2022-06-09T07:16:24.000Z</time>
      </trkpt>
      <trkpt lat="44.74662" lon="5.9722">
        <ele>1429.24</ele>
        <time>2022-06-09T07:16:51.000Z</time>
      </trkpt>
      <trkpt lat="44.74652" lon="5.97198">
        <ele>1434.07</ele>
        <time>2022-06-09T07:17:22.000Z</time>
      </trkpt>
      <trkpt lat="44.74645" lon="5.97174">
        <ele>1433.77</ele>
        <time>2022-06-09T07:17:45.000Z</time>
      </trkpt>
      <trkpt lat="44.74646" lon="5.972">
        <ele>1446.8</ele>
        <time>2022-06-09T07:18:52.000Z</time>
      </trkpt>
      <trkpt lat="44.74643" lon="5.97225">
        <ele>1449.31</ele>
        <time>2022-06-09T07:19:21.000Z</time>
      </trkpt>
      <trkpt lat="44.74627" lon="5.97214">
        <ele>1455.99</ele>
        <time>2022-06-09T07:19:56.000Z</time>
      </trkpt>
      <trkpt lat="44.74618" lon="5.97192">
        <ele>1456.94</ele>
        <time>2022-06-09T07:20:18.000Z</time>
      </trkpt>
      <trkpt lat="44.74609" lon="5.97169">
        <ele>1464.67</ele>
        <time>2022-06-09T07:20:59.000Z</time>
      </trkpt>
      <trkpt lat="44.74602" lon="5.97145">
        <ele>1468.38</ele>
        <time>2022-06-09T07:21:20.000Z</time>
      </trkpt>
      <trkpt lat="44.74601" lon="5.97119">
        <ele>1470.96</ele>
        <time>2022-06-09T07:21:41.000Z</time>
      </trkpt>
      <trkpt lat="44.74595" lon="5.97095">
        <ele>1477.02</ele>
        <time>2022-06-09T07:22:19.000Z</time>
      </trkpt>
      <trkpt lat="44.74595" lon="5.97121">
        <ele>1483.42</ele>
        <time>2022-06-09T07:23:01.000Z</time>
      </trkpt>
      <trkpt lat="44.74592" lon="5.97146">
        <ele>1487.6</ele>
        <time>2022-06-09T07:23:33.000Z</time>
      </trkpt>
      <trkpt lat="44.7459" lon="5.97173">
        <ele>1493.9</ele>
        <time>2022-06-09T07:23:56.000Z</time>
      </trkpt>
      <trkpt lat="44.74584" lon="5.97198">
        <ele>1495.05</ele>
        <time>2022-06-09T07:24:18.999Z</time>
      </trkpt>
      <trkpt lat="44.74586" lon="5.97224">
        <ele>1495.54</ele>
        <time>2022-06-09T07:24:33.999Z</time>
      </trkpt>
      <trkpt lat="44.74585" lon="5.9725">
        <ele>1498.99</ele>
        <time>2022-06-09T07:24:57.999Z</time>
      </trkpt>
      <trkpt lat="44.74582" lon="5.97275">
        <ele>1502.51</ele>
        <time>2022-06-09T07:25:13.999Z</time>
      </trkpt>
      <trkpt lat="44.74565" lon="5.97286">
        <ele>1505.23</ele>
        <time>2022-06-09T07:25:36.999Z</time>
      </trkpt>
      <trkpt lat="44.7455" lon="5.973">
        <ele>1507.42</ele>
        <time>2022-06-09T07:26:00.999Z</time>
      </trkpt>
      <trkpt lat="44.74532" lon="5.973">
        <ele>1514.1</ele>
        <time>2022-06-09T07:27:04.999Z</time>
      </trkpt>
      <trkpt lat="44.74523" lon="5.97278">
        <ele>1521.55</ele>
        <time>2022-06-09T07:27:42.999Z</time>
      </trkpt>
      <trkpt lat="44.7453" lon="5.97254">
        <ele>1531.61</ele>
        <time>2022-06-09T07:28:49.999Z</time>
      </trkpt>
      <trkpt lat="44.74525" lon="5.97229">
        <ele>1536.79</ele>
        <time>2022-06-09T07:29:21.999Z</time>
      </trkpt>
      <trkpt lat="44.74521" lon="5.97203">
        <ele>1543.42</ele>
        <time>2022-06-09T07:29:55.999Z</time>
      </trkpt>
      <trkpt lat="44.74513" lon="5.97181">
        <ele>1546.9</ele>
        <time>2022-06-09T07:30:17.999Z</time>
      </trkpt>
      <trkpt lat="44.74513" lon="5.97155">
        <ele>1550.57</ele>
        <time>2022-06-09T07:30:44.999Z</time>
      </trkpt>
      <trkpt lat="44.74511" lon="5.9713">
        <ele>1554.42</ele>
        <time>2022-06-09T07:31:20.999Z</time>
      </trkpt>
      <trkpt lat="44.74508" lon="5.97104">
        <ele>1559.45</ele>
        <time>2022-06-09T07:31:53.999Z</time>
      </trkpt>
      <trkpt lat="44.74501" lon="5.97079">
        <ele>1561.47</ele>
        <time>2022-06-09T07:32:17.999Z</time>
      </trkpt>
      <trkpt lat="44.74499" lon="5.97053">
        <ele>1565.59</ele>
        <time>2022-06-09T07:32:38.999Z</time>
      </trkpt>
      <trkpt lat="44.74498" lon="5.97028">
        <ele>1573.02</ele>
        <time>2022-06-09T07:33:18.999Z</time>
      </trkpt>
      <trkpt lat="44.74496" lon="5.97002">
        <ele>1575.83</ele>
        <time>2022-06-09T07:34:40.999Z</time>
      </trkpt>
      <trkpt lat="44.7449" lon="5.96977">
        <ele>1573.3</ele>
        <time>2022-06-09T07:35:19.999Z</time>
      </trkpt>
      <trkpt lat="44.74491" lon="5.96952">
        <ele>1574.97</ele>
        <time>2022-06-09T07:35:35.999Z</time>
      </trkpt>
      <trkpt lat="44.74489" lon="5.96925">
        <ele>1576.3</ele>
        <time>2022-06-09T07:37:02.999Z</time>
      </trkpt>
      <trkpt lat="44.7449" lon="5.96899">
        <ele>1572.11</ele>
        <time>2022-06-09T07:37:20.999Z</time>
      </trkpt>
      <trkpt lat="44.74492" lon="5.96872">
        <ele>1564.43</ele>
        <time>2022-06-09T07:37:37.999Z</time>
      </trkpt>
      <trkpt lat="44.74493" lon="5.96847">
        <ele>1560.8</ele>
        <time>2022-06-09T07:37:53.999Z</time>
      </trkpt>
      <trkpt lat="44.74492" lon="5.9682">
        <ele>1558.65</ele>
        <time>2022-06-09T07:38:16.999Z</time>
      </trkpt>
      <trkpt lat="44.74494" lon="5.96794">
        <ele>1556.1</ele>
        <time>2022-06-09T07:38:31.999Z</time>
      </trkpt>
      <trkpt lat="44.74494" lon="5.96768">
        <ele>1556.72</ele>
        <time>2022-06-09T07:38:53.999Z</time>
      </trkpt>
      <trkpt lat="44.74501" lon="5.96744">
        <ele>1558.77</ele>
        <time>2022-06-09T07:39:26.999Z</time>
      </trkpt>
      <trkpt lat="44.74506" lon="5.96719">
        <ele>1561.84</ele>
        <time>2022-06-09T07:39:47.999Z</time>
      </trkpt>
      <trkpt lat="44.74508" lon="5.96693">
        <ele>1562.08</ele>
        <time>2022-06-09T07:40:15.999Z</time>
      </trkpt>
      <trkpt lat="44.74515" lon="5.96668">
        <ele>1559.17</ele>
        <time>2022-06-09T07:40:52.999Z</time>
      </trkpt>
      <trkpt lat="44.74521" lon="5.96643">
        <ele>1561.45</ele>
        <time>2022-06-09T07:41:18.999Z</time>
      </trkpt>
      <trkpt lat="44.74528" lon="5.96619">
        <ele>1560.57</ele>
        <time>2022-06-09T07:41:36.999Z</time>
      </trkpt>
      <trkpt lat="44.74535" lon="5.96595">
        <ele>1565.57</ele>
        <time>2022-06-09T07:41:56.999Z</time>
      </trkpt>
      <trkpt lat="44.74545" lon="5.96573">
        <ele>1566.81</ele>
        <time>2022-06-09T07:42:14.999Z</time>
      </trkpt>
      <trkpt lat="44.74547" lon="5.96547">
        <ele>1566.67</ele>
        <time>2022-06-09T07:42:40.999Z</time>
      </trkpt>
      <trkpt lat="44.74552" lon="5.96522">
        <ele>1568.71</ele>
        <time>2022-06-09T07:43:08.999Z</time>
      </trkpt>
      <trkpt lat="44.74544" lon="5.96499">
        <ele>1566.61</ele>
        <time>2022-06-09T07:44:24.999Z</time>
      </trkpt>
      <trkpt lat="44.74557" lon="5.9648">
        <ele>1558.5</ele>
        <time>2022-06-09T07:45:40.999Z</time>
      </trkpt>
      <trkpt lat="44.74573" lon="5.96468">
        <ele>1564.27</ele>
        <time>2022-06-09T07:46:18.999Z</time>
      </trkpt>
      <trkpt lat="44.74591" lon="5.96469">
        <ele>1561.1</ele>
        <time>2022-06-09T07:46:51.999Z</time>
      </trkpt>
      <trkpt lat="44.74589" lon="5.96443">
        <ele>1551.9</ele>
        <time>2022-06-09T07:48:06.999Z</time>
      </trkpt>
      <trkpt lat="44.74588" lon="5.96417">
        <ele>1547.12</ele>
        <time>2022-06-09T07:49:06.999Z</time>
      </trkpt>
      <trkpt lat="44.746" lon="5.96399">
        <ele>1551.09</ele>
        <time>2022-06-09T07:49:50.999Z</time>
      </trkpt>
      <trkpt lat="44.74591" lon="5.96377">
        <ele>1545.59</ele>
        <time>2022-06-09T07:50:49.000Z</time>
      </trkpt>
      <trkpt lat="44.74595" lon="5.96352">
        <ele>1564.49</ele>
        <time>2022-06-09T07:53:24.000Z</time>
      </trkpt>
      <trkpt lat="44.74595" lon="5.96326">
        <ele>1570.65</ele>
        <time>2022-06-09T07:55:06.000Z</time>
      </trkpt>
      <trkpt lat="44.74579" lon="5.96314">
        <ele>1569.03</ele>
        <time>2022-06-09T07:55:33.000Z</time>
      </trkpt>
      <trkpt lat="44.74578" lon="5.96288">
        <ele>1578.73</ele>
        <time>2022-06-09T07:56:50.000Z</time>
      </trkpt>
      <trkpt lat="44.74568" lon="5.96267">
        <ele>1575.7</ele>
        <time>2022-06-09T07:57:22.000Z</time>
      </trkpt>
      <trkpt lat="44.7455" lon="5.96261">
        <ele>1584.09</ele>
        <time>2022-06-09T07:59:59.000Z</time>
      </trkpt>
      <trkpt lat="44.74539" lon="5.96241">
        <ele>1586.67</ele>
        <time>2022-06-09T08:00:46.000Z</time>
      </trkpt>
      <trkpt lat="44.74547" lon="5.96218">
        <ele>1603.24</ele>
        <time>2022-06-09T08:01:46.000Z</time>
      </trkpt>
      <trkpt lat="44.74543" lon="5.96192">
        <ele>1607.13</ele>
        <time>2022-06-09T08:02:36.000Z</time>
      </trkpt>
      <trkpt lat="44.74545" lon="5.96167">
        <ele>1607.72</ele>
        <time>2022-06-09T08:03:08.000Z</time>
      </trkpt>
      <trkpt lat="44.74541" lon="5.96141">
        <ele>1606.21</ele>
        <time>2022-06-09T08:04:24.000Z</time>
      </trkpt>
      <trkpt lat="44.74529" lon="5.96121">
        <ele>1607.99</ele>
        <time>2022-06-09T08:05:36.000Z</time>
      </trkpt>
      <trkpt lat="44.74523" lon="5.96097">
        <ele>1610.21</ele>
        <time>2022-06-09T08:09:38.000Z</time>
      </trkpt>
      <trkpt lat="44.74526" lon="5.96072">
        <ele>1621.77</ele>
        <time>2022-06-09T08:11:29.000Z</time>
      </trkpt>
      <trkpt lat="44.74522" lon="5.96047">
        <ele>1636.71</ele>
        <time>2022-06-09T08:13:20.000Z</time>
      </trkpt>
      <trkpt lat="44.74507" lon="5.96033">
        <ele>1652.16</ele>
        <time>2022-06-09T08:14:54.999Z</time>
      </trkpt>
      <trkpt lat="44.74496" lon="5.96013">
        <ele>1666.95</ele>
        <time>2022-06-09T08:18:19.999Z</time>
      </trkpt>
      <trkpt lat="44.74482" lon="5.95994">
        <ele>1664.96</ele>
        <time>2022-06-09T08:19:04.999Z</time>
      </trkpt>
      <trkpt lat="44.7447" lon="5.95976">
        <ele>1662.86</ele>
        <time>2022-06-09T08:19:24.999Z</time>
      </trkpt>
      <trkpt lat="44.74465" lon="5.95951">
        <ele>1669.78</ele>
        <time>2022-06-09T08:20:01.999Z</time>
      </trkpt>
      <trkpt lat="44.74476" lon="5.9593">
        <ele>1675.2</ele>
        <time>2022-06-09T08:20:32.999Z</time>
      </trkpt>
      <trkpt lat="44.7449" lon="5.95912">
        <ele>1674.7</ele>
        <time>2022-06-09T08:21:16.999Z</time>
      </trkpt>
      <trkpt lat="44.74504" lon="5.95895">
        <ele>1680.15</ele>
        <time>2022-06-09T08:22:01.999Z</time>
      </trkpt>
      <trkpt lat="44.74507" lon="5.9587">
        <ele>1689.63</ele>
        <time>2022-06-09T08:22:55.999Z</time>
      </trkpt>
      <trkpt lat="44.74505" lon="5.95844">
        <ele>1696.53</ele>
        <time>2022-06-09T08:24:16.999Z</time>
      </trkpt>
      <trkpt lat="44.74512" lon="5.95821">
        <ele>1696.56</ele>
        <time>2022-06-09T08:25:09.999Z</time>
      </trkpt>
      <trkpt lat="44.74511" lon="5.95795">
        <ele>1701</ele>
        <time>2022-06-09T08:39:49.000Z</time>
      </trkpt>
      <trkpt lat="44.74499" lon="5.95776">
        <ele>1706.58</ele>
        <time>2022-06-09T08:40:52.000Z</time>
      </trkpt>
      <trkpt lat="44.74481" lon="5.95774">
        <ele>1711.1</ele>
        <time>2022-06-09T08:41:43.000Z</time>
      </trkpt>
      <trkpt lat="44.74463" lon="5.95771">
        <ele>1717.37</ele>
        <time>2022-06-09T08:42:47.000Z</time>
      </trkpt>
      <trkpt lat="44.74446" lon="5.95763">
        <ele>1723.81</ele>
        <time>2022-06-09T08:43:54.000Z</time>
      </trkpt>
      <trkpt lat="44.74428" lon="5.95761">
        <ele>1728.01</ele>
        <time>2022-06-09T08:45:45.000Z</time>
      </trkpt>
      <trkpt lat="44.74431" lon="5.95736">
        <ele>1733.5</ele>
        <time>2022-06-09T08:46:24.000Z</time>
      </trkpt>
      <trkpt lat="44.74446" lon="5.95723">
        <ele>1738.66</ele>
        <time>2022-06-09T08:47:02.000Z</time>
      </trkpt>
      <trkpt lat="44.74458" lon="5.95704">
        <ele>1745.27</ele>
        <time>2022-06-09T08:47:53.000Z</time>
      </trkpt>
      <trkpt lat="44.74468" lon="5.95682">
        <ele>1742.68</ele>
        <time>2022-06-09T08:49:06.000Z</time>
      </trkpt>
      <trkpt lat="44.7447" lon="5.95656">
        <ele>1746.06</ele>
        <time>2022-06-09T08:50:40.000Z</time>
      </trkpt>
      <trkpt lat="44.74465" lon="5.95681">
        <ele>1742.49</ele>
        <time>2022-06-09T08:52:58.000Z</time>
      </trkpt>
      <trkpt lat="44.74453" lon="5.9566">
        <ele>1753.13</ele>
        <time>2022-06-09T08:59:54.000Z</time>
      </trkpt>
      <trkpt lat="44.74447" lon="5.95635">
        <ele>1755.59</ele>
        <time>2022-06-09T09:00:29.000Z</time>
      </trkpt>
      <trkpt lat="44.74441" lon="5.9561">
        <ele>1761.88</ele>
        <time>2022-06-09T09:01:09.000Z</time>
      </trkpt>
      <trkpt lat="44.74425" lon="5.956">
        <ele>1767.2</ele>
        <time>2022-06-09T09:01:57.000Z</time>
      </trkpt>
      <trkpt lat="44.74414" lon="5.95578">
        <ele>1773.94</ele>
        <time>2022-06-09T09:02:58.000Z</time>
      </trkpt>
      <trkpt lat="44.74398" lon="5.95565">
        <ele>1782.22</ele>
        <time>2022-06-09T09:03:47.999Z</time>
      </trkpt>
      <trkpt lat="44.74385" lon="5.95547">
        <ele>1787.78</ele>
        <time>2022-06-09T09:04:23.999Z</time>
      </trkpt>
      <trkpt lat="44.74377" lon="5.95524">
        <ele>1794.82</ele>
        <time>2022-06-09T09:05:18.999Z</time>
      </trkpt>
      <trkpt lat="44.74363" lon="5.95508">
        <ele>1804.01</ele>
        <time>2022-06-09T09:06:16.999Z</time>
      </trkpt>
      <trkpt lat="44.74351" lon="5.95488">
        <ele>1811.34</ele>
        <time>2022-06-09T09:07:10.999Z</time>
      </trkpt>
      <trkpt lat="44.74339" lon="5.95469">
        <ele>1820.64</ele>
        <time>2022-06-09T09:07:53.999Z</time>
      </trkpt>
      <trkpt lat="44.74322" lon="5.95463">
        <ele>1832.88</ele>
        <time>2022-06-09T09:08:38.999Z</time>
      </trkpt>
      <trkpt lat="44.74304" lon="5.95453">
        <ele>1836.46</ele>
        <time>2022-06-09T09:09:37.999Z</time>
      </trkpt>
      <trkpt lat="44.74287" lon="5.95462">
        <ele>1842.97</ele>
        <time>2022-06-09T09:10:22.999Z</time>
      </trkpt>
      <trkpt lat="44.74272" lon="5.95476">
        <ele>1845.13</ele>
        <time>2022-06-09T09:10:48.999Z</time>
      </trkpt>
      <trkpt lat="44.74253" lon="5.95474">
        <ele>1855.74</ele>
        <time>2022-06-09T09:11:58.999Z</time>
      </trkpt>
      <trkpt lat="44.74239" lon="5.95457">
        <ele>1866.44</ele>
        <time>2022-06-09T09:13:51.999Z</time>
      </trkpt>
      <trkpt lat="44.74224" lon="5.95444">
        <ele>1876.05</ele>
        <time>2022-06-09T09:15:02.999Z</time>
      </trkpt>
      <trkpt lat="44.74205" lon="5.95441">
        <ele>1889.24</ele>
        <time>2022-06-09T09:16:15.999Z</time>
      </trkpt>
      <trkpt lat="44.74195" lon="5.9542">
        <ele>1902.03</ele>
        <time>2022-06-09T09:17:51.999Z</time>
      </trkpt>
      <trkpt lat="44.7418" lon="5.95407">
        <ele>1914.34</ele>
        <time>2022-06-09T09:18:54.999Z</time>
      </trkpt>
      <trkpt lat="44.74171" lon="5.95384">
        <ele>1928.17</ele>
        <time>2022-06-09T09:20:43.999Z</time>
      </trkpt>
      <trkpt lat="44.74155" lon="5.9537">
        <ele>1936.41</ele>
        <time>2022-06-09T09:22:01.999Z</time>
      </trkpt>
      <trkpt lat="44.74138" lon="5.95361">
        <ele>1948.63</ele>
        <time>2022-06-09T09:23:21.999Z</time>
      </trkpt>
      <trkpt lat="44.74121" lon="5.95352">
        <ele>1962.44</ele>
        <time>2022-06-09T09:24:54.999Z</time>
      </trkpt>
      <trkpt lat="44.74105" lon="5.95341">
        <ele>1976.3</ele>
        <time>2022-06-09T09:26:37.999Z</time>
      </trkpt>
      <trkpt lat="44.74105" lon="5.95315">
        <ele>1980.02</ele>
        <time>2022-06-09T09:27:22.999Z</time>
      </trkpt>
      <trkpt lat="44.74094" lon="5.95296">
        <ele>1994</ele>
        <time>2022-06-09T09:30:01.000Z</time>
      </trkpt>
      <trkpt lat="44.74077" lon="5.95288">
        <ele>2006.56</ele>
        <time>2022-06-09T09:31:30.000Z</time>
      </trkpt>
      <trkpt lat="44.74077" lon="5.95262">
        <ele>2015.29</ele>
        <time>2022-06-09T09:32:49.000Z</time>
      </trkpt>
      <trkpt lat="44.74077" lon="5.95236">
        <ele>2017.5</ele>
        <time>2022-06-09T09:36:11.000Z</time>
      </trkpt>
      <trkpt lat="44.74087" lon="5.95215">
        <ele>2023.06</ele>
        <time>2022-06-09T09:37:24.000Z</time>
      </trkpt>
      <trkpt lat="44.74095" lon="5.95192">
        <ele>2029.46</ele>
        <time>2022-06-09T09:39:25.000Z</time>
      </trkpt>
      <trkpt lat="44.74108" lon="5.95174">
        <ele>2030.28</ele>
        <time>2022-06-09T09:43:11.000Z</time>
      </trkpt>
      <trkpt lat="44.74121" lon="5.95156">
        <ele>2037.06</ele>
        <time>2022-06-09T09:44:04.000Z</time>
      </trkpt>
      <trkpt lat="44.74139" lon="5.95154">
        <ele>2048.41</ele>
        <time>2022-06-09T09:45:25.000Z</time>
      </trkpt>
      <trkpt lat="44.74154" lon="5.9517">
        <ele>2064.47</ele>
        <time>2022-06-09T09:47:28.000Z</time>
      </trkpt>
      <trkpt lat="44.7416" lon="5.95146">
        <ele>2068.86</ele>
        <time>2022-06-09T09:48:43.000Z</time>
      </trkpt>
      <trkpt lat="44.74173" lon="5.95128">
        <ele>2076.65</ele>
        <time>2022-06-09T09:49:53.000Z</time>
      </trkpt>
      <trkpt lat="44.74186" lon="5.95111">
        <ele>2082.83</ele>
        <time>2022-06-09T09:50:56.000Z</time>
      </trkpt>
      <trkpt lat="44.74201" lon="5.95095">
        <ele>2093.04</ele>
        <time>2022-06-09T09:52:10.000Z</time>
      </trkpt>
      <trkpt lat="44.74212" lon="5.95074">
        <ele>2096.33</ele>
        <time>2022-06-09T09:52:43.000Z</time>
      </trkpt>
      <trkpt lat="44.74195" lon="5.95067">
        <ele>2122.84</ele>
        <time>2022-06-09T09:56:56.000Z</time>
      </trkpt>
      <trkpt lat="44.74178" lon="5.95058">
        <ele>2134.94</ele>
        <time>2022-06-09T09:59:06.999Z</time>
      </trkpt>
      <trkpt lat="44.74161" lon="5.95047">
        <ele>2142.35</ele>
        <time>2022-06-09T10:00:49.999Z</time>
      </trkpt>
      <trkpt lat="44.74171" lon="5.95025">
        <ele>2146.38</ele>
        <time>2022-06-09T10:02:36.999Z</time>
      </trkpt>
      <trkpt lat="44.74188" lon="5.95016">
        <ele>2154.98</ele>
        <time>2022-06-09T10:04:26.999Z</time>
      </trkpt>
      <trkpt lat="44.74202" lon="5.95001">
        <ele>2161.77</ele>
        <time>2022-06-09T10:05:30.999Z</time>
      </trkpt>
      <trkpt lat="44.74219" lon="5.94989">
        <ele>2169.95</ele>
        <time>2022-06-09T10:06:29.999Z</time>
      </trkpt>
      <trkpt lat="44.74237" lon="5.94991">
        <ele>2169.36</ele>
        <time>2022-06-09T10:08:26.999Z</time>
      </trkpt>
      <trkpt lat="44.74248" lon="5.94971">
        <ele>2174.42</ele>
        <time>2022-06-09T10:08:59.999Z</time>
      </trkpt>
      <trkpt lat="44.74265" lon="5.94981">
        <ele>2185.92</ele>
        <time>2022-06-09T10:10:19.999Z</time>
      </trkpt>
      <trkpt lat="44.7428" lon="5.94969">
        <ele>2194.88</ele>
        <time>2022-06-09T10:11:48.999Z</time>
      </trkpt>
      <trkpt lat="44.74298" lon="5.94962">
        <ele>2208.68</ele>
        <time>2022-06-09T10:13:24.999Z</time>
      </trkpt>
      <trkpt lat="44.74315" lon="5.94953">
        <ele>2220.46</ele>
        <time>2022-06-09T10:15:06.999Z</time>
      </trkpt>
      <trkpt lat="44.74333" lon="5.94948">
        <ele>2227.17</ele>
        <time>2022-06-09T10:22:14.999Z</time>
      </trkpt>
      <trkpt lat="44.74321" lon="5.94967">
        <ele>2224.79</ele>
        <time>2022-06-09T10:39:07.000Z</time>
      </trkpt>
      <trkpt lat="44.74317" lon="5.94943">
        <ele>2221.13</ele>
        <time>2022-06-09T10:49:03.000Z</time>
      </trkpt>
      <trkpt lat="44.74302" lon="5.94958">
        <ele>2209.5</ele>
        <time>2022-06-09T10:53:48.000Z</time>
      </trkpt>
      <trkpt lat="44.74286" lon="5.94969">
        <ele>2201.88</ele>
        <time>2022-06-09T10:54:44.000Z</time>
      </trkpt>
      <trkpt lat="44.74269" lon="5.94979">
        <ele>2184.2</ele>
        <time>2022-06-09T10:57:17.999Z</time>
      </trkpt>
      <trkpt lat="44.74252" lon="5.94988">
        <ele>2190.77</ele>
        <time>2022-06-09T10:58:33.999Z</time>
      </trkpt>
      <trkpt lat="44.74234" lon="5.94991">
        <ele>2169.02</ele>
        <time>2022-06-09T10:59:22.999Z</time>
      </trkpt>
      <trkpt lat="44.74216" lon="5.94992">
        <ele>2161.62</ele>
        <time>2022-06-09T11:01:06.999Z</time>
      </trkpt>
      <trkpt lat="44.74201" lon="5.95006">
        <ele>2158.41</ele>
        <time>2022-06-09T11:02:05.999Z</time>
      </trkpt>
      <trkpt lat="44.74183" lon="5.95007">
        <ele>2153.56</ele>
        <time>2022-06-09T11:02:45.999Z</time>
      </trkpt>
      <trkpt lat="44.74167" lon="5.95021">
        <ele>2145.87</ele>
        <time>2022-06-09T11:05:36.999Z</time>
      </trkpt>
      <trkpt lat="44.74153" lon="5.95038">
        <ele>2136.36</ele>
        <time>2022-06-09T11:07:29.999Z</time>
      </trkpt>
      <trkpt lat="44.74171" lon="5.95047">
        <ele>2134.04</ele>
        <time>2022-06-09T11:09:05.999Z</time>
      </trkpt>
      <trkpt lat="44.74187" lon="5.95058">
        <ele>2119.4</ele>
        <time>2022-06-09T11:12:14.999Z</time>
      </trkpt>
      <trkpt lat="44.74203" lon="5.95069">
        <ele>2106.7</ele>
        <time>2022-06-09T11:17:10.999Z</time>
      </trkpt>
      <trkpt lat="44.74221" lon="5.95071">
        <ele>2101.97</ele>
        <time>2022-06-09T11:22:15.999Z</time>
      </trkpt>
      <trkpt lat="44.74208" lon="5.95089">
        <ele>2096.37</ele>
        <time>2022-06-09T11:23:24.999Z</time>
      </trkpt>
      <trkpt lat="44.74193" lon="5.95105">
        <ele>2089.41</ele>
        <time>2022-06-09T11:24:00.999Z</time>
      </trkpt>
      <trkpt lat="44.74179" lon="5.95121">
        <ele>2075.57</ele>
        <time>2022-06-09T11:25:47.999Z</time>
      </trkpt>
      <trkpt lat="44.74166" lon="5.95138">
        <ele>2067.24</ele>
        <time>2022-06-09T11:26:41.999Z</time>
      </trkpt>
      <trkpt lat="44.74156" lon="5.9516">
        <ele>2058.8</ele>
        <time>2022-06-09T11:27:40.000Z</time>
      </trkpt>
      <trkpt lat="44.74138" lon="5.95166">
        <ele>2045.23</ele>
        <time>2022-06-09T11:29:22.000Z</time>
      </trkpt>
      <trkpt lat="44.74121" lon="5.95173">
        <ele>2035.25</ele>
        <time>2022-06-09T11:31:05.000Z</time>
      </trkpt>
      <trkpt lat="44.74103" lon="5.9518">
        <ele>2022.89</ele>
        <time>2022-06-09T11:32:45.000Z</time>
      </trkpt>
      <trkpt lat="44.74101" lon="5.95206">
        <ele>2014.78</ele>
        <time>2022-06-09T11:33:07.000Z</time>
      </trkpt>
      <trkpt lat="44.74098" lon="5.95232">
        <ele>2008.14</ele>
        <time>2022-06-09T11:36:08.000Z</time>
      </trkpt>
      <trkpt lat="44.74092" lon="5.95256">
        <ele>2002.43</ele>
        <time>2022-06-09T11:36:31.000Z</time>
      </trkpt>
      <trkpt lat="44.74089" lon="5.95282">
        <ele>1994.59</ele>
        <time>2022-06-09T11:37:20.000Z</time>
      </trkpt>
      <trkpt lat="44.74082" lon="5.95306">
        <ele>1992.88</ele>
        <time>2022-06-09T11:37:51.000Z</time>
      </trkpt>
      <trkpt lat="44.74074" lon="5.95329">
        <ele>1985.78</ele>
        <time>2022-06-09T11:38:33.000Z</time>
      </trkpt>
      <trkpt lat="44.74076" lon="5.95354">
        <ele>1983.72</ele>
        <time>2022-06-09T11:39:10.000Z</time>
      </trkpt>
      <trkpt lat="44.74069" lon="5.95378">
        <ele>1982.02</ele>
        <time>2022-06-09T11:39:46.000Z</time>
      </trkpt>
      <trkpt lat="44.74087" lon="5.95382">
        <ele>1971.07</ele>
        <time>2022-06-09T11:41:32.000Z</time>
      </trkpt>
      <trkpt lat="44.74071" lon="5.95397">
        <ele>1971.59</ele>
        <time>2022-06-09T11:42:30.000Z</time>
      </trkpt>
      <trkpt lat="44.74064" lon="5.9542">
        <ele>1971.81</ele>
        <time>2022-06-09T11:42:56.000Z</time>
      </trkpt>
      <trkpt lat="44.74055" lon="5.95443">
        <ele>1971.45</ele>
        <time>2022-06-09T11:43:51.000Z</time>
      </trkpt>
      <trkpt lat="44.74054" lon="5.95468">
        <ele>1967.34</ele>
        <time>2022-06-09T11:44:40.000Z</time>
      </trkpt>
      <trkpt lat="44.74051" lon="5.95494">
        <ele>1966.18</ele>
        <time>2022-06-09T11:45:13.000Z</time>
      </trkpt>
      <trkpt lat="44.74047" lon="5.95519">
        <ele>1967.93</ele>
        <time>2022-06-09T11:45:44.000Z</time>
      </trkpt>
      <trkpt lat="44.74053" lon="5.95544">
        <ele>1975.48</ele>
        <time>2022-06-09T11:46:29.000Z</time>
      </trkpt>
      <trkpt lat="44.7406" lon="5.95568">
        <ele>1976.98</ele>
        <time>2022-06-09T11:47:33.000Z</time>
      </trkpt>
      <trkpt lat="44.74057" lon="5.95593">
        <ele>1978.65</ele>
        <time>2022-06-09T11:47:55.000Z</time>
      </trkpt>
      <trkpt lat="44.74061" lon="5.95618">
        <ele>1985.88</ele>
        <time>2022-06-09T11:49:59.000Z</time>
      </trkpt>
      <trkpt lat="44.74067" lon="5.95642">
        <ele>1986.25</ele>
        <time>2022-06-09T11:52:25.000Z</time>
      </trkpt>
      <trkpt lat="44.74066" lon="5.95667">
        <ele>1986.83</ele>
        <time>2022-06-09T11:52:39.000Z</time>
      </trkpt>
      <trkpt lat="44.74061" lon="5.95691">
        <ele>1986.25</ele>
        <time>2022-06-09T11:55:37.000Z</time>
      </trkpt>
      <trkpt lat="44.74057" lon="5.95716">
        <ele>2003.78</ele>
        <time>2022-06-09T11:57:27.000Z</time>
      </trkpt>
      <trkpt lat="44.74059" lon="5.95742">
        <ele>2017.59</ele>
        <time>2022-06-09T12:01:01.999Z</time>
      </trkpt>
      <trkpt lat="44.74075" lon="5.95755">
        <ele>2028.32</ele>
        <time>2022-06-09T12:01:42.999Z</time>
      </trkpt>
      <trkpt lat="44.74082" lon="5.95778">
        <ele>2043.05</ele>
        <time>2022-06-09T12:06:46.999Z</time>
      </trkpt>
      <trkpt lat="44.74089" lon="5.95802">
        <ele>2051.92</ele>
        <time>2022-06-09T12:09:39.999Z</time>
      </trkpt>
      <trkpt lat="44.74081" lon="5.95825">
        <ele>2059.98</ele>
        <time>2022-06-09T12:15:20.999Z</time>
      </trkpt>
      <trkpt lat="44.74068" lon="5.95844">
        <ele>2048.47</ele>
        <time>2022-06-09T12:16:31.999Z</time>
      </trkpt>
      <trkpt lat="44.74085" lon="5.95835">
        <ele>2040.84</ele>
        <time>2022-06-09T12:17:43.999Z</time>
      </trkpt>
      <trkpt lat="44.74103" lon="5.9584">
        <ele>2024.75</ele>
        <time>2022-06-09T12:19:05.999Z</time>
      </trkpt>
      <trkpt lat="44.74121" lon="5.95844">
        <ele>2023.52</ele>
        <time>2022-06-09T12:19:48.999Z</time>
      </trkpt>
      <trkpt lat="44.74139" lon="5.95845">
        <ele>2020.98</ele>
        <time>2022-06-09T12:20:48.999Z</time>
      </trkpt>
      <trkpt lat="44.74154" lon="5.95832">
        <ele>2020.57</ele>
        <time>2022-06-09T12:21:08.999Z</time>
      </trkpt>
      <trkpt lat="44.74152" lon="5.95806">
        <ele>2024.71</ele>
        <time>2022-06-09T12:23:51.999Z</time>
      </trkpt>
      <trkpt lat="44.74165" lon="5.95826">
        <ele>2024.75</ele>
        <time>2022-06-09T12:24:37.999Z</time>
      </trkpt>
      <trkpt lat="44.74154" lon="5.95846">
        <ele>2016.15</ele>
        <time>2022-06-09T12:27:11.999Z</time>
      </trkpt>
      <trkpt lat="44.74148" lon="5.95872">
        <ele>2006.94</ele>
        <time>2022-06-09T12:27:49.999Z</time>
      </trkpt>
      <trkpt lat="44.7414" lon="5.95895">
        <ele>1993.88</ele>
        <time>2022-06-09T12:28:57.000Z</time>
      </trkpt>
      <trkpt lat="44.74154" lon="5.95912">
        <ele>1983.56</ele>
        <time>2022-06-09T12:29:41.000Z</time>
      </trkpt>
      <trkpt lat="44.74167" lon="5.95931">
        <ele>1972.81</ele>
        <time>2022-06-09T12:30:51.000Z</time>
      </trkpt>
      <trkpt lat="44.74186" lon="5.95935">
        <ele>1966.56</ele>
        <time>2022-06-09T12:32:06.000Z</time>
      </trkpt>
      <trkpt lat="44.742" lon="5.9595">
        <ele>1958.61</ele>
        <time>2022-06-09T12:32:30.000Z</time>
      </trkpt>
      <trkpt lat="44.74213" lon="5.95968">
        <ele>1957.78</ele>
        <time>2022-06-09T12:33:20.000Z</time>
      </trkpt>
      <trkpt lat="44.74228" lon="5.95983">
        <ele>1951.56</ele>
        <time>2022-06-09T12:33:55.000Z</time>
      </trkpt>
      <trkpt lat="44.74241" lon="5.96001">
        <ele>1947.64</ele>
        <time>2022-06-09T12:34:33.000Z</time>
      </trkpt>
      <trkpt lat="44.74257" lon="5.96016">
        <ele>1945.1</ele>
        <time>2022-06-09T12:35:06.000Z</time>
      </trkpt>
      <trkpt lat="44.74256" lon="5.96041">
        <ele>1925.11</ele>
        <time>2022-06-09T12:36:18.000Z</time>
      </trkpt>
      <trkpt lat="44.74241" lon="5.96055">
        <ele>1909.81</ele>
        <time>2022-06-09T12:37:06.000Z</time>
      </trkpt>
      <trkpt lat="44.74226" lon="5.9607">
        <ele>1900.01</ele>
        <time>2022-06-09T12:37:57.000Z</time>
      </trkpt>
      <trkpt lat="44.74209" lon="5.96081">
        <ele>1884.75</ele>
        <time>2022-06-09T12:38:41.000Z</time>
      </trkpt>
      <trkpt lat="44.74196" lon="5.96098">
        <ele>1874.14</ele>
        <time>2022-06-09T12:39:12.000Z</time>
      </trkpt>
      <trkpt lat="44.74197" lon="5.96123">
        <ele>1865.36</ele>
        <time>2022-06-09T12:40:05.000Z</time>
      </trkpt>
      <trkpt lat="44.74203" lon="5.96147">
        <ele>1854.32</ele>
        <time>2022-06-09T12:40:49.000Z</time>
      </trkpt>
      <trkpt lat="44.74214" lon="5.96167">
        <ele>1840.75</ele>
        <time>2022-06-09T12:41:54.000Z</time>
      </trkpt>
      <trkpt lat="44.74199" lon="5.9618">
        <ele>1828.09</ele>
        <time>2022-06-09T12:42:39.000Z</time>
      </trkpt>
      <trkpt lat="44.74184" lon="5.96196">
        <ele>1816.83</ele>
        <time>2022-06-09T12:43:13.000Z</time>
      </trkpt>
      <trkpt lat="44.74169" lon="5.96211">
        <ele>1807.22</ele>
        <time>2022-06-09T12:43:40.000Z</time>
      </trkpt>
      <trkpt lat="44.74157" lon="5.9623">
        <ele>1798.46</ele>
        <time>2022-06-09T12:44:14.000Z</time>
      </trkpt>
      <trkpt lat="44.74168" lon="5.9625">
        <ele>1790.71</ele>
        <time>2022-06-09T12:44:46.000Z</time>
      </trkpt>
      <trkpt lat="44.74177" lon="5.96273">
        <ele>1780.62</ele>
        <time>2022-06-09T12:45:21.000Z</time>
      </trkpt>
      <trkpt lat="44.74192" lon="5.96288">
        <ele>1774.92</ele>
        <time>2022-06-09T12:46:54.000Z</time>
      </trkpt>
      <trkpt lat="44.74207" lon="5.96302">
        <ele>1775.3</ele>
        <time>2022-06-09T12:47:18.000Z</time>
      </trkpt>
      <trkpt lat="44.74205" lon="5.96327">
        <ele>1764.38</ele>
        <time>2022-06-09T12:49:07.000Z</time>
      </trkpt>
      <trkpt lat="44.74214" lon="5.96349">
        <ele>1752.12</ele>
        <time>2022-06-09T12:49:41.000Z</time>
      </trkpt>
      <trkpt lat="44.74224" lon="5.96371">
        <ele>1746.31</ele>
        <time>2022-06-09T12:50:09.000Z</time>
      </trkpt>
      <trkpt lat="44.74228" lon="5.96396">
        <ele>1735.03</ele>
        <time>2022-06-09T12:51:20.000Z</time>
      </trkpt>
      <trkpt lat="44.74242" lon="5.96413">
        <ele>1727.1</ele>
        <time>2022-06-09T12:51:47.000Z</time>
      </trkpt>
      <trkpt lat="44.74253" lon="5.96434">
        <ele>1723.59</ele>
        <time>2022-06-09T12:52:19.000Z</time>
      </trkpt>
      <trkpt lat="44.74257" lon="5.96458">
        <ele>1716.36</ele>
        <time>2022-06-09T12:53:05.000Z</time>
      </trkpt>
      <trkpt lat="44.74266" lon="5.96481">
        <ele>1704.92</ele>
        <time>2022-06-09T12:53:33.000Z</time>
      </trkpt>
      <trkpt lat="44.74277" lon="5.96502">
        <ele>1709.54</ele>
        <time>2022-06-09T12:53:58.000Z</time>
      </trkpt>
      <trkpt lat="44.74285" lon="5.96525">
        <ele>1703.71</ele>
        <time>2022-06-09T12:54:33.000Z</time>
      </trkpt>
      <trkpt lat="44.74296" lon="5.96545">
        <ele>1697.49</ele>
        <time>2022-06-09T12:55:18.000Z</time>
      </trkpt>
      <trkpt lat="44.74301" lon="5.9657">
        <ele>1696.03</ele>
        <time>2022-06-09T12:56:09.000Z</time>
      </trkpt>
      <trkpt lat="44.74306" lon="5.96595">
        <ele>1690.7</ele>
        <time>2022-06-09T12:56:34.000Z</time>
      </trkpt>
      <trkpt lat="44.74313" lon="5.96619">
        <ele>1672.57</ele>
        <time>2022-06-09T12:57:02.000Z</time>
      </trkpt>
      <trkpt lat="44.74322" lon="5.96641">
        <ele>1667.74</ele>
        <time>2022-06-09T12:57:37.000Z</time>
      </trkpt>
      <trkpt lat="44.74315" lon="5.96664">
        <ele>1659.42</ele>
        <time>2022-06-09T12:58:11.000Z</time>
      </trkpt>
      <trkpt lat="44.74323" lon="5.96688">
        <ele>1652</ele>
        <time>2022-06-09T12:58:53.000Z</time>
      </trkpt>
      <trkpt lat="44.74334" lon="5.96708">
        <ele>1642.29</ele>
        <time>2022-06-09T12:59:21.000Z</time>
      </trkpt>
      <trkpt lat="44.7434" lon="5.96732">
        <ele>1643.34</ele>
        <time>2022-06-09T12:59:48.000Z</time>
      </trkpt>
      <trkpt lat="44.74327" lon="5.96751">
        <ele>1629.81</ele>
        <time>2022-06-09T13:00:34.999Z</time>
      </trkpt>
      <trkpt lat="44.74311" lon="5.96763">
        <ele>1622.76</ele>
        <time>2022-06-09T13:01:10.999Z</time>
      </trkpt>
      <trkpt lat="44.74315" lon="5.96788">
        <ele>1610.46</ele>
        <time>2022-06-09T13:02:06.999Z</time>
      </trkpt>
      <trkpt lat="44.74328" lon="5.96807">
        <ele>1609.04</ele>
        <time>2022-06-09T13:02:27.999Z</time>
      </trkpt>
      <trkpt lat="44.74345" lon="5.96816">
        <ele>1601.11</ele>
        <time>2022-06-09T13:02:54.999Z</time>
      </trkpt>
      <trkpt lat="44.74363" lon="5.96823">
        <ele>1601.89</ele>
        <time>2022-06-09T13:03:13.999Z</time>
      </trkpt>
      <trkpt lat="44.7438" lon="5.96832">
        <ele>1593.8</ele>
        <time>2022-06-09T13:03:32.999Z</time>
      </trkpt>
      <trkpt lat="44.74397" lon="5.96844">
        <ele>1590.13</ele>
        <time>2022-06-09T13:03:57.999Z</time>
      </trkpt>
      <trkpt lat="44.74413" lon="5.96858">
        <ele>1585.86</ele>
        <time>2022-06-09T13:04:20.999Z</time>
      </trkpt>
      <trkpt lat="44.74428" lon="5.96874">
        <ele>1581.5</ele>
        <time>2022-06-09T13:04:42.999Z</time>
      </trkpt>
      <trkpt lat="44.74445" lon="5.96884">
        <ele>1579.48</ele>
        <time>2022-06-09T13:05:01.999Z</time>
      </trkpt>
      <trkpt lat="44.74463" lon="5.96894">
        <ele>1575.29</ele>
        <time>2022-06-09T13:05:19.999Z</time>
      </trkpt>
      <trkpt lat="44.74477" lon="5.96911">
        <ele>1568.86</ele>
        <time>2022-06-09T13:05:40.999Z</time>
      </trkpt>
      <trkpt lat="44.74485" lon="5.96934">
        <ele>1564.06</ele>
        <time>2022-06-09T13:05:58.999Z</time>
      </trkpt>
      <trkpt lat="44.74486" lon="5.9696">
        <ele>1562.14</ele>
        <time>2022-06-09T13:06:48.592Z</time>
      </trkpt>
      <trkpt lat="44.7449" lon="5.96984">
        <ele>1562.69</ele>
        <time>2022-06-09T13:07:13.651Z</time>
      </trkpt>
      <trkpt lat="44.74492" lon="5.9701">
        <ele>1559.08</ele>
        <time>2022-06-09T13:08:02.999Z</time>
      </trkpt>
      <trkpt lat="44.745" lon="5.97034">
        <ele>1552.14</ele>
        <time>2022-06-09T13:08:31.449Z</time>
      </trkpt>
      <trkpt lat="44.74507" lon="5.97057">
        <ele>1549.65</ele>
        <time>2022-06-09T13:09:09.712Z</time>
      </trkpt>
      <trkpt lat="44.74511" lon="5.97082">
        <ele>1549.29</ele>
        <time>2022-06-09T13:09:22.999Z</time>
      </trkpt>
      <trkpt lat="44.74514" lon="5.97108">
        <ele>1540.73</ele>
        <time>2022-06-09T13:09:53.670Z</time>
      </trkpt>
      <trkpt lat="44.74516" lon="5.97134">
        <ele>1538.97</ele>
        <time>2022-06-09T13:10:17.208Z</time>
      </trkpt>
      <trkpt lat="44.74517" lon="5.9716">
        <ele>1534.61</ele>
        <time>2022-06-09T13:10:39.804Z</time>
      </trkpt>
      <trkpt lat="44.74521" lon="5.97184">
        <ele>1528.81</ele>
        <time>2022-06-09T13:11:04.276Z</time>
      </trkpt>
      <trkpt lat="44.74531" lon="5.97207">
        <ele>1524.34</ele>
        <time>2022-06-09T13:11:24.999Z</time>
      </trkpt>
      <trkpt lat="44.74531" lon="5.97232">
        <ele>1523.18</ele>
        <time>2022-06-09T13:11:49.576Z</time>
      </trkpt>
      <trkpt lat="44.74532" lon="5.97257">
        <ele>1510.38</ele>
        <time>2022-06-09T13:12:25.427Z</time>
      </trkpt>
      <trkpt lat="44.74534" lon="5.97283">
        <ele>1501.67</ele>
        <time>2022-06-09T13:12:54.999Z</time>
      </trkpt>
      <trkpt lat="44.74535" lon="5.97308">
        <ele>1493.49</ele>
        <time>2022-06-09T13:14:00.736Z</time>
      </trkpt>
      <trkpt lat="44.74544" lon="5.97286">
        <ele>1495.55</ele>
        <time>2022-06-09T13:15:03.999Z</time>
      </trkpt>
      <trkpt lat="44.74562" lon="5.97276">
        <ele>1493.62</ele>
        <time>2022-06-09T13:16:12.373Z</time>
      </trkpt>
      <trkpt lat="44.74572" lon="5.97255">
        <ele>1489.93</ele>
        <time>2022-06-09T13:16:34.169Z</time>
      </trkpt>
      <trkpt lat="44.74575" lon="5.9723">
        <ele>1487.44</ele>
        <time>2022-06-09T13:16:57.206Z</time>
      </trkpt>
      <trkpt lat="44.74573" lon="5.97204">
        <ele>1485.06</ele>
        <time>2022-06-09T13:17:20.151Z</time>
      </trkpt>
      <trkpt lat="44.7457" lon="5.97178">
        <ele>1479.78</ele>
        <time>2022-06-09T13:17:37.999Z</time>
      </trkpt>
      <trkpt lat="44.7457" lon="5.97153">
        <ele>1476.88</ele>
        <time>2022-06-09T13:18:02.146Z</time>
      </trkpt>
      <trkpt lat="44.74578" lon="5.97129">
        <ele>1472.88</ele>
        <time>2022-06-09T13:18:26.650Z</time>
      </trkpt>
      <trkpt lat="44.74583" lon="5.97105">
        <ele>1465.45</ele>
        <time>2022-06-09T13:18:45.999Z</time>
      </trkpt>
      <trkpt lat="44.74595" lon="5.97124">
        <ele>1454.28</ele>
        <time>2022-06-09T13:19:36.411Z</time>
      </trkpt>
      <trkpt lat="44.74597" lon="5.97149">
        <ele>1452.79</ele>
        <time>2022-06-09T13:20:05.626Z</time>
      </trkpt>
      <trkpt lat="44.74605" lon="5.97172">
        <ele>1448.39</ele>
        <time>2022-06-09T13:20:25.479Z</time>
      </trkpt>
      <trkpt lat="44.74615" lon="5.97194">
        <ele>1441.1</ele>
        <time>2022-06-09T13:20:51.449Z</time>
      </trkpt>
      <trkpt lat="44.74623" lon="5.97218">
        <ele>1439.88</ele>
        <time>2022-06-09T13:21:11.731Z</time>
      </trkpt>
      <trkpt lat="44.74629" lon="5.97193">
        <ele>1428.08</ele>
        <time>2022-06-09T13:22:16.035Z</time>
      </trkpt>
      <trkpt lat="44.74627" lon="5.97168">
        <ele>1427.71</ele>
        <time>2022-06-09T13:22:35.634Z</time>
      </trkpt>
      <trkpt lat="44.74639" lon="5.97187">
        <ele>1418.95</ele>
        <time>2022-06-09T13:23:15.999Z</time>
      </trkpt>
      <trkpt lat="44.74645" lon="5.97212">
        <ele>1414.23</ele>
        <time>2022-06-09T13:23:42.640Z</time>
      </trkpt>
      <trkpt lat="44.74653" lon="5.97236">
        <ele>1409.47</ele>
        <time>2022-06-09T13:24:07.702Z</time>
      </trkpt>
      <trkpt lat="44.74659" lon="5.9726">
        <ele>1407</ele>
        <time>2022-06-09T13:24:26.197Z</time>
      </trkpt>
      <trkpt lat="44.74671" lon="5.9724">
        <ele>1399.84</ele>
        <time>2022-06-09T13:24:54.356Z</time>
      </trkpt>
      <trkpt lat="44.74679" lon="5.97217">
        <ele>1396.07</ele>
        <time>2022-06-09T13:25:16.416Z</time>
      </trkpt>
      <trkpt lat="44.74675" lon="5.97192">
        <ele>1392.57</ele>
        <time>2022-06-09T13:25:34.213Z</time>
      </trkpt>
      <trkpt lat="44.74693" lon="5.97196">
        <ele>1380.32</ele>
        <time>2022-06-09T13:26:39.410Z</time>
      </trkpt>
      <trkpt lat="44.74704" lon="5.97216">
        <ele>1373.91</ele>
        <time>2022-06-09T13:27:04.154Z</time>
      </trkpt>
      <trkpt lat="44.74711" lon="5.97239">
        <ele>1370.6</ele>
        <time>2022-06-09T13:27:23.999Z</time>
      </trkpt>
      <trkpt lat="44.7472" lon="5.97263">
        <ele>1370.32</ele>
        <time>2022-06-09T13:27:41.999Z</time>
      </trkpt>
      <trkpt lat="44.74726" lon="5.97287">
        <ele>1367.64</ele>
        <time>2022-06-09T13:28:08.429Z</time>
      </trkpt>
      <trkpt lat="44.74741" lon="5.97302">
        <ele>1354.4</ele>
        <time>2022-06-09T13:29:08.339Z</time>
      </trkpt>
      <trkpt lat="44.74757" lon="5.97291">
        <ele>1350.99</ele>
        <time>2022-06-09T13:29:27.999Z</time>
      </trkpt>
      <trkpt lat="44.74768" lon="5.9727">
        <ele>1344.84</ele>
        <time>2022-06-09T13:29:51.638Z</time>
      </trkpt>
      <trkpt lat="44.74765" lon="5.97245">
        <ele>1336.87</ele>
        <time>2022-06-09T13:30:13.216Z</time>
      </trkpt>
      <trkpt lat="44.74762" lon="5.97219">
        <ele>1330.55</ele>
        <time>2022-06-09T13:30:33.594Z</time>
      </trkpt>
      <trkpt lat="44.7478" lon="5.97227">
        <ele>1318.33</ele>
        <time>2022-06-09T13:31:22.575Z</time>
      </trkpt>
      <trkpt lat="44.74787" lon="5.97251">
        <ele>1316.12</ele>
        <time>2022-06-09T13:31:39.554Z</time>
      </trkpt>
      <trkpt lat="44.74797" lon="5.97274">
        <ele>1312.46</ele>
        <time>2022-06-09T13:32:03.652Z</time>
      </trkpt>
      <trkpt lat="44.74807" lon="5.97296">
        <ele>1306.07</ele>
        <time>2022-06-09T13:32:26.410Z</time>
      </trkpt>
      <trkpt lat="44.74816" lon="5.97318">
        <ele>1306.86</ele>
        <time>2022-06-09T13:32:40.328Z</time>
      </trkpt>
      <trkpt lat="44.74812" lon="5.97343">
        <ele>1301.61</ele>
        <time>2022-06-09T13:33:11.479Z</time>
      </trkpt>
      <trkpt lat="44.74828" lon="5.97355">
        <ele>1285.1</ele>
        <time>2022-06-09T13:34:19.395Z</time>
      </trkpt>
      <trkpt lat="44.74844" lon="5.97344">
        <ele>1279.18</ele>
        <time>2022-06-09T13:34:46.211Z</time>
      </trkpt>
      <trkpt lat="44.74863" lon="5.97338">
        <ele>1275.44</ele>
        <time>2022-06-09T13:37:23.000Z</time>
      </trkpt>
      <trkpt lat="44.74876" lon="5.97322">
        <ele>1275.38</ele>
        <time>2022-06-09T13:39:55.370Z</time>
      </trkpt>
      <trkpt lat="44.7487" lon="5.97298">
        <ele>1264.74</ele>
        <time>2022-06-09T13:40:21.167Z</time>
      </trkpt>
      <trkpt lat="44.74869" lon="5.97272">
        <ele>1262.28</ele>
        <time>2022-06-09T13:40:47.309Z</time>
      </trkpt>
      <trkpt lat="44.74873" lon="5.97247">
        <ele>1256.53</ele>
        <time>2022-06-09T13:41:10.446Z</time>
      </trkpt>
      <trkpt lat="44.7487" lon="5.97222">
        <ele>1248.51</ele>
        <time>2022-06-09T13:41:34.256Z</time>
      </trkpt>
      <trkpt lat="44.74889" lon="5.97224">
        <ele>1234.81</ele>
        <time>2022-06-09T13:42:37.695Z</time>
      </trkpt>
      <trkpt lat="44.74906" lon="5.97213">
        <ele>1220.36</ele>
        <time>2022-06-09T13:43:27.291Z</time>
      </trkpt>
      <trkpt lat="44.74911" lon="5.97189">
        <ele>1215.73</ele>
        <time>2022-06-09T13:43:45.000Z</time>
      </trkpt>
      <trkpt lat="44.74911" lon="5.97163">
        <ele>1210.74</ele>
        <time>2022-06-09T13:44:09.859Z</time>
      </trkpt>
      <trkpt lat="44.74924" lon="5.97182">
        <ele>1206.36</ele>
        <time>2022-06-09T13:44:42.335Z</time>
      </trkpt>
      <trkpt lat="44.74938" lon="5.97199">
        <ele>1203.32</ele>
        <time>2022-06-09T13:45:08.032Z</time>
      </trkpt>
      <trkpt lat="44.74951" lon="5.97216">
        <ele>1199.13</ele>
        <time>2022-06-09T13:45:41.289Z</time>
      </trkpt>
      <trkpt lat="44.74968" lon="5.97223">
        <ele>1178.9</ele>
        <time>2022-06-09T13:47:18.478Z</time>
      </trkpt>
      <trkpt lat="44.74982" lon="5.9724">
        <ele>1171.24</ele>
        <time>2022-06-09T13:47:48.575Z</time>
      </trkpt>
      <trkpt lat="44.74974" lon="5.97263">
        <ele>1172.45</ele>
        <time>2022-06-09T13:48:36.000Z</time>
      </trkpt>
      <trkpt lat="44.74989" lon="5.97275">
        <ele>1166.91</ele>
        <time>2022-06-09T13:49:25.000Z</time>
      </trkpt>
      <trkpt lat="44.75004" lon="5.97261">
        <ele>1155.22</ele>
        <time>2022-06-09T13:50:30.372Z</time>
      </trkpt>
      <trkpt lat="44.75009" lon="5.97236">
        <ele>1147.4</ele>
        <time>2022-06-09T13:50:55.725Z</time>
      </trkpt>
      <trkpt lat="44.75015" lon="5.97212">
        <ele>1144.46</ele>
        <time>2022-06-09T13:51:15.238Z</time>
      </trkpt>
      <trkpt lat="44.75032" lon="5.97222">
        <ele>1140.74</ele>
        <time>2022-06-09T13:51:47.035Z</time>
      </trkpt>
      <trkpt lat="44.75046" lon="5.9724">
        <ele>1138.97</ele>
        <time>2022-06-09T13:52:01.332Z</time>
      </trkpt>
      <trkpt lat="44.75045" lon="5.97266">
        <ele>1135</ele>
        <time>2022-06-09T13:52:25.254Z</time>
      </trkpt>
      <trkpt lat="44.75047" lon="5.97291">
        <ele>1130.49</ele>
        <time>2022-06-09T13:52:42.000Z</time>
      </trkpt>
      <trkpt lat="44.75052" lon="5.97316">
        <ele>1124.4</ele>
        <time>2022-06-09T13:53:08.155Z</time>
      </trkpt>
      <trkpt lat="44.7506" lon="5.97339">
        <ele>1117.91</ele>
        <time>2022-06-09T13:53:30.811Z</time>
      </trkpt>
      <trkpt lat="44.75061" lon="5.97365">
        <ele>1110.08</ele>
        <time>2022-06-09T13:53:56.292Z</time>
      </trkpt>
      <trkpt lat="44.75072" lon="5.97386">
        <ele>1103.89</ele>
        <time>2022-06-09T13:54:20.350Z</time>
      </trkpt>
      <trkpt lat="44.75079" lon="5.9741">
        <ele>1098.32</ele>
        <time>2022-06-09T13:54:41.727Z</time>
      </trkpt>
      <trkpt lat="44.7509" lon="5.97432">
        <ele>1090.84</ele>
        <time>2022-06-09T13:55:03.403Z</time>
      </trkpt>
      <trkpt lat="44.75087" lon="5.97457">
        <ele>1081.72</ele>
        <time>2022-06-09T13:55:20.000Z</time>
      </trkpt>
      <trkpt lat="44.75093" lon="5.9748">
        <ele>1075.25</ele>
        <time>2022-06-09T13:55:44.034Z</time>
      </trkpt>
      <trkpt lat="44.75088" lon="5.97504">
        <ele>1067.82</ele>
        <time>2022-06-09T13:56:09.712Z</time>
      </trkpt>
      <trkpt lat="44.75091" lon="5.9753">
        <ele>1064.74</ele>
        <time>2022-06-09T13:56:33.000Z</time>
      </trkpt>
      <trkpt lat="44.75109" lon="5.97529">
        <ele>1058.42</ele>
        <time>2022-06-09T14:01:20.214Z</time>
      </trkpt>
      <trkpt lat="44.75116" lon="5.97552">
        <ele>1050.46</ele>
        <time>2022-06-09T14:01:40.999Z</time>
      </trkpt>
      <trkpt lat="44.75134" lon="5.97561">
        <ele>1035.63</ele>
        <time>2022-06-09T14:02:34.447Z</time>
      </trkpt>
      <trkpt lat="44.75152" lon="5.9756">
        <ele>1029.66</ele>
        <time>2022-06-09T14:02:54.579Z</time>
      </trkpt>
      <trkpt lat="44.75168" lon="5.9755">
        <ele>1025.36</ele>
        <time>2022-06-09T14:03:18.693Z</time>
      </trkpt>
      <trkpt lat="44.7518" lon="5.9757">
        <ele>1021.04</ele>
        <time>2022-06-09T14:04:15.591Z</time>
      </trkpt>
      <trkpt lat="44.75179" lon="5.97596">
        <ele>1015.16</ele>
        <time>2022-06-09T14:04:34.730Z</time>
      </trkpt>
      <trkpt lat="44.7518" lon="5.97621">
        <ele>1006.08</ele>
        <time>2022-06-09T14:06:11.874Z</time>
      </trkpt>
      <trkpt lat="44.75198" lon="5.97615">
        <ele>995.08</ele>
        <time>2022-06-09T14:06:59.999Z</time>
      </trkpt>
      <trkpt lat="44.75214" lon="5.97629">
        <ele>991.75</ele>
        <time>2022-06-09T14:07:28.999Z</time>
      </trkpt>
      <trkpt lat="44.75224" lon="5.97651">
        <ele>988.55</ele>
        <time>2022-06-09T14:08:30.390Z</time>
      </trkpt>
      <trkpt lat="44.75236" lon="5.9767">
        <ele>990.46</ele>
        <time>2022-06-09T14:09:39.489Z</time>
      </trkpt>
      <trkpt lat="44.75232" lon="5.97695">
        <ele>988.26</ele>
        <time>2022-06-09T14:09:53.999Z</time>
      </trkpt>
      <trkpt lat="44.75228" lon="5.9772">
        <ele>987.69</ele>
        <time>2022-06-09T14:10:18.999Z</time>
      </trkpt>
      <trkpt lat="44.7523" lon="5.97746">
        <ele>980.51</ele>
        <time>2022-06-09T14:10:49.072Z</time>
      </trkpt>
      <trkpt lat="44.75229" lon="5.97771">
        <ele>978.66</ele>
        <time>2022-06-09T14:11:02.999Z</time>
      </trkpt>
      <trkpt lat="44.75222" lon="5.97795">
        <ele>977.12</ele>
        <time>2022-06-09T14:11:25.328Z</time>
      </trkpt>
      <trkpt lat="44.75226" lon="5.9782">
        <ele>971.83</ele>
        <time>2022-06-09T14:11:44.090Z</time>
      </trkpt>
      <trkpt lat="44.75228" lon="5.97847">
        <ele>967.15</ele>
        <time>2022-06-09T14:12:03.396Z</time>
      </trkpt>
      <trkpt lat="44.75231" lon="5.97872">
        <ele>965.21</ele>
        <time>2022-06-09T14:12:19.151Z</time>
      </trkpt>
      <trkpt lat="44.75235" lon="5.97897">
        <ele>962.07</ele>
        <time>2022-06-09T14:12:37.636Z</time>
      </trkpt>
      <trkpt lat="44.75242" lon="5.97921">
        <ele>959.53</ele>
        <time>2022-06-09T14:13:00.393Z</time>
      </trkpt>
      <trkpt lat="44.75248" lon="5.97945">
        <ele>955.91</ele>
        <time>2022-06-09T14:13:20.514Z</time>
      </trkpt>
      <trkpt lat="44.75246" lon="5.97971">
        <ele>953.69</ele>
        <time>2022-06-09T14:13:38.125Z</time>
      </trkpt>
      <trkpt lat="44.75251" lon="5.97996">
        <ele>953.06</ele>
        <time>2022-06-09T14:13:56.596Z</time>
      </trkpt>
      <trkpt lat="44.75259" lon="5.9802">
        <ele>951.44</ele>
        <time>2022-06-09T14:14:22.413Z</time>
      </trkpt>
      <trkpt lat="44.7527" lon="5.9804">
        <ele>949.95</ele>
        <time>2022-06-09T14:14:39.489Z</time>
      </trkpt>
      <trkpt lat="44.75279" lon="5.98064">
        <ele>949.8</ele>
        <time>2022-06-09T14:14:57.999Z</time>
      </trkpt>
      <trkpt lat="44.75294" lon="5.9808">
        <ele>948.19</ele>
        <time>2022-06-09T14:15:13.153Z</time>
      </trkpt>
      <trkpt lat="44.75308" lon="5.98096">
        <ele>946.89</ele>
        <time>2022-06-09T14:15:35.852Z</time>
      </trkpt>
      <trkpt lat="44.75314" lon="5.98122">
        <ele>944.07</ele>
        <time>2022-06-09T14:16:16.357Z</time>
      </trkpt>
      <trkpt lat="44.75322" lon="5.98144">
        <ele>942.23</ele>
        <time>2022-06-09T14:17:19.999Z</time>
      </trkpt>
    </trkseg>
  </trk>
</gpx>